createdAt,value
2018-08-21T00:00:38.288Z,27.93
2018-08-21T00:01:21.719Z,27.96
2018-08-21T00:02:02.580Z,28.04
2018-08-21T00:02:43.358Z,28.04
2018-08-21T00:03:24.118Z,27.96
2018-08-21T00:04:04.859Z,27.99
2018-08-21T00:04:47.223Z,27.99
2018-08-21T00:05:28.030Z,28
2018-08-21T00:06:08.759Z,27.94
2018-08-21T00:06:49.490Z,27.99
2018-08-21T00:07:30.370Z,27.99
2018-08-21T00:08:11.221Z,28.02
2018-08-21T00:08:52.000Z,27.96
2018-08-21T00:09:32.818Z,27.99
2018-08-21T00:10:13.638Z,27.96
2018-08-21T00:10:54.365Z,27.97
2018-08-21T00:11:35.215Z,27.97
2018-08-21T00:12:15.978Z,27.97
2018-08-21T00:12:56.779Z,27.88
2018-08-21T00:13:37.593Z,27.96
2018-08-21T00:14:18.345Z,27.97
2018-08-21T00:14:59.158Z,27.97
2018-08-21T00:15:39.932Z,27.96
2018-08-21T00:16:20.711Z,27.97
2018-08-21T00:17:01.490Z,27.97
2018-08-21T00:17:42.278Z,27.92
2018-08-21T00:18:23.108Z,27.99
2018-08-21T00:19:03.923Z,28
2018-08-21T00:19:44.618Z,27.97
2018-08-21T00:20:25.456Z,27.92
2018-08-21T00:21:06.298Z,27.94
2018-08-21T00:21:48.586Z,27.96
2018-08-21T00:22:29.325Z,27.96
2018-08-21T00:23:10.079Z,27.99
2018-08-21T00:23:50.919Z,28
2018-08-21T00:24:31.715Z,27.84
2018-08-21T00:25:12.486Z,27.88
2018-08-21T00:25:53.172Z,27.87
2018-08-21T00:26:34.011Z,27.85
2018-08-21T00:27:14.801Z,27.81
2018-08-21T00:27:55.611Z,27.88
2018-08-21T00:28:36.431Z,27.93
2018-08-21T00:29:17.171Z,27.93
2018-08-21T00:29:57.895Z,27.84
2018-08-21T00:30:38.637Z,27.93
2018-08-21T00:31:19.518Z,27.87
2018-08-21T00:32:00.279Z,27.9
2018-08-21T00:32:41.018Z,27.87
2018-08-21T00:33:21.850Z,27.94
2018-08-21T00:34:02.664Z,27.87
2018-08-21T00:34:43.521Z,27.88
2018-08-21T00:35:24.279Z,27.92
2018-08-21T00:36:05.004Z,27.84
2018-08-21T00:36:45.867Z,27.88
2018-08-21T00:37:26.648Z,27.85
2018-08-21T00:38:07.397Z,27.88
2018-08-21T00:38:48.160Z,27.94
2018-08-21T00:39:28.965Z,27.96
2018-08-21T00:40:09.838Z,27.84
2018-08-21T00:40:50.560Z,27.88
2018-08-21T00:41:31.297Z,27.88
2018-08-21T00:42:12.162Z,27.92
2018-08-21T00:42:52.997Z,27.93
2018-08-21T00:43:33.829Z,27.93
2018-08-21T00:44:14.555Z,27.88
2018-08-21T00:44:55.263Z,27.9
2018-08-21T00:45:36.027Z,27.9
2018-08-21T00:46:16.804Z,27.88
2018-08-21T00:46:57.595Z,27.88
2018-08-21T00:47:38.539Z,27.92
2018-08-21T00:48:19.312Z,27.88
2018-08-21T00:49:00.085Z,27.92
2018-08-21T00:49:40.882Z,27.87
2018-08-21T00:50:21.656Z,27.85
2018-08-21T00:51:03.932Z,27.93
2018-08-21T00:51:44.673Z,27.88
2018-08-21T00:52:25.455Z,27.88
2018-08-21T00:53:07.802Z,27.9
2018-08-21T00:53:48.649Z,27.88
2018-08-21T00:54:29.443Z,27.87
2018-08-21T00:55:10.193Z,27.94
2018-08-21T00:55:53.455Z,27.96
2018-08-21T00:56:34.148Z,27.9
2018-08-21T00:57:15.008Z,27.88
2018-08-21T00:57:55.800Z,27.92
2018-08-21T00:58:36.520Z,27.87
2018-08-21T00:59:17.314Z,27.87
2018-08-21T00:59:58.101Z,27.84
2018-08-21T01:00:38.981Z,27.88
2018-08-21T01:01:19.729Z,27.82
2018-08-21T01:02:00.477Z,27.79
2018-08-21T01:02:41.225Z,27.85
2018-08-21T01:03:21.963Z,27.93
2018-08-21T01:04:02.794Z,27.82
2018-08-21T01:04:43.613Z,27.85
2018-08-21T01:05:24.430Z,27.85
2018-08-21T01:06:05.187Z,27.81
2018-08-21T01:06:45.965Z,27.85
2018-08-21T01:07:26.754Z,27.85
2018-08-21T01:08:07.529Z,27.78
2018-08-21T01:08:48.304Z,27.79
2018-08-21T01:09:29.050Z,27.84
2018-08-21T01:10:09.855Z,27.84
2018-08-21T01:10:50.666Z,27.81
2018-08-21T01:11:31.403Z,27.85
2018-08-21T01:12:12.199Z,27.85
2018-08-21T01:12:52.992Z,27.85
2018-08-21T01:13:33.814Z,27.84
2018-08-21T01:14:14.616Z,27.85
2018-08-21T01:14:55.375Z,27.82
2018-08-21T01:15:36.254Z,27.84
2018-08-21T01:16:17.038Z,27.78
2018-08-21T01:16:57.769Z,27.77
2018-08-21T01:17:38.489Z,27.79
2018-08-21T01:18:19.244Z,27.88
2018-08-21T01:19:00.031Z,27.85
2018-08-21T01:19:40.885Z,27.84
2018-08-21T01:20:21.724Z,27.79
2018-08-21T01:21:02.473Z,27.79
2018-08-21T01:21:43.193Z,27.78
2018-08-21T01:22:23.953Z,27.87
2018-08-21T01:23:04.704Z,27.74
2018-08-21T01:23:45.469Z,27.84
2018-08-21T01:24:26.214Z,27.75
2018-08-21T01:25:07.014Z,27.74
2018-08-21T01:25:47.892Z,27.82
2018-08-21T01:26:28.713Z,27.78
2018-08-21T01:27:09.503Z,27.77
2018-08-21T01:27:52.001Z,27.77
2018-08-21T01:28:32.760Z,27.74
2018-08-21T01:29:13.533Z,27.75
2018-08-21T01:29:54.308Z,27.77
2018-08-21T01:30:35.178Z,27.78
2018-08-21T01:31:16.040Z,27.74
2018-08-21T01:31:56.833Z,27.79
2018-08-21T01:32:37.558Z,27.82
2018-08-21T01:33:18.369Z,27.74
2018-08-21T01:34:01.824Z,27.81
2018-08-21T01:34:42.550Z,27.77
2018-08-21T01:35:23.307Z,27.79
2018-08-21T01:36:04.041Z,27.82
2018-08-21T01:36:44.859Z,27.79
2018-08-21T01:37:25.654Z,27.78
2018-08-21T01:38:06.500Z,27.79
2018-08-21T01:38:47.221Z,27.75
2018-08-21T01:39:28.052Z,27.77
2018-08-21T01:40:08.802Z,27.75
2018-08-21T01:40:49.580Z,27.78
2018-08-21T01:41:30.471Z,27.79
2018-08-21T01:42:11.213Z,27.78
2018-08-21T01:42:52.008Z,27.75
2018-08-21T01:43:32.831Z,27.78
2018-08-21T01:44:15.165Z,27.77
2018-08-21T01:44:56.048Z,27.72
2018-08-21T01:45:36.814Z,27.75
2018-08-21T01:46:17.577Z,27.82
2018-08-21T01:47:01.337Z,27.75
2018-08-21T01:47:42.048Z,27.82
2018-08-21T01:48:22.809Z,27.77
2018-08-21T01:49:05.263Z,27.74
2018-08-21T01:49:46.030Z,27.81
2018-08-21T01:50:26.838Z,27.81
2018-08-21T01:51:07.586Z,27.77
2018-08-21T01:51:48.350Z,27.75
2018-08-21T01:52:29.174Z,27.78
2018-08-21T01:53:10.021Z,27.77
2018-08-21T01:53:50.779Z,27.78
2018-08-21T01:54:31.530Z,27.78
2018-08-21T01:55:12.279Z,27.79
2018-08-21T01:55:53.015Z,27.72
2018-08-21T01:56:33.887Z,27.74
2018-08-21T01:57:14.705Z,27.74
2018-08-21T01:57:55.501Z,27.78
2018-08-21T01:58:36.215Z,27.81
2018-08-21T01:59:17.029Z,27.78
2018-08-21T01:59:57.919Z,27.79
2018-08-21T02:00:38.712Z,27.75
2018-08-21T02:01:19.414Z,27.7
2018-08-21T02:02:00.165Z,27.72
2018-08-21T02:02:40.976Z,27.7
2018-08-21T02:03:21.772Z,27.78
2018-08-21T02:04:02.549Z,27.7
2018-08-21T02:04:43.311Z,27.78
2018-08-21T02:05:24.023Z,27.78
2018-08-21T02:06:04.766Z,27.7
2018-08-21T02:06:45.508Z,27.77
2018-08-21T02:07:26.341Z,27.77
2018-08-21T02:08:07.039Z,27.69
2018-08-21T02:08:47.824Z,27.74
2018-08-21T02:09:28.640Z,27.72
2018-08-21T02:10:09.485Z,27.7
2018-08-21T02:10:50.428Z,27.69
2018-08-21T02:11:31.186Z,27.65
2018-08-21T02:12:11.948Z,27.74
2018-08-21T02:12:52.680Z,27.74
2018-08-21T02:13:33.430Z,27.72
2018-08-21T02:14:14.276Z,27.69
2018-08-21T02:14:55.112Z,27.74
2018-08-21T02:15:35.883Z,27.75
2018-08-21T02:16:16.666Z,27.69
2018-08-21T02:16:57.457Z,27.65
2018-08-21T02:17:38.276Z,27.69
2018-08-21T02:18:18.991Z,27.7
2018-08-21T02:18:59.744Z,27.7
2018-08-21T02:19:40.448Z,27.72
2018-08-21T02:20:21.323Z,27.67
2018-08-21T02:21:02.084Z,27.7
2018-08-21T02:21:42.879Z,27.69
2018-08-21T02:22:23.660Z,27.74
2018-08-21T02:23:04.484Z,27.67
2018-08-21T02:23:45.372Z,27.63
2018-08-21T02:24:26.158Z,27.6
2018-08-21T02:25:06.903Z,27.63
2018-08-21T02:25:47.766Z,27.67
2018-08-21T02:26:28.533Z,27.63
2018-08-21T02:27:09.255Z,27.66
2018-08-21T02:27:49.993Z,27.66
2018-08-21T02:28:30.700Z,27.66
2018-08-21T02:29:11.577Z,27.66
2018-08-21T02:29:52.370Z,27.66
2018-08-21T02:30:33.206Z,27.6
2018-08-21T02:31:13.908Z,27.63
2018-08-21T02:31:54.673Z,27.7
2018-08-21T02:32:35.338Z,27.69
2018-08-21T02:33:16.129Z,27.7
2018-08-21T02:33:56.938Z,27.67
2018-08-21T02:34:37.663Z,27.62
2018-08-21T02:35:18.402Z,27.69
2018-08-21T02:35:59.275Z,27.59
2018-08-21T02:36:40.084Z,27.65
2018-08-21T02:37:20.869Z,27.62
2018-08-21T02:38:01.623Z,27.59
2018-08-21T02:38:42.440Z,27.66
2018-08-21T02:39:23.235Z,27.66
2018-08-21T02:40:03.953Z,27.65
2018-08-21T02:40:46.505Z,27.62
2018-08-21T02:41:27.271Z,27.67
2018-08-21T02:42:08.078Z,27.66
2018-08-21T02:42:48.891Z,27.57
2018-08-21T02:43:29.647Z,27.67
2018-08-21T02:44:10.433Z,27.55
2018-08-21T02:44:51.281Z,27.51
2018-08-21T02:45:32.023Z,27.51
2018-08-21T02:46:12.864Z,27.57
2018-08-21T02:46:53.685Z,27.59
2018-08-21T02:47:34.415Z,27.63
2018-08-21T02:48:15.183Z,27.66
2018-08-21T02:48:55.983Z,27.55
2018-08-21T02:49:36.820Z,27.55
2018-08-21T02:50:17.623Z,27.51
2018-08-21T02:50:58.356Z,27.55
2018-08-21T02:51:39.150Z,27.57
2018-08-21T02:52:19.996Z,27.51
2018-08-21T02:53:00.765Z,27.59
2018-08-21T02:53:41.513Z,27.54
2018-08-21T02:54:22.233Z,27.59
2018-08-21T02:55:03.046Z,27.62
2018-08-21T02:55:43.842Z,27.59
2018-08-21T02:56:24.569Z,27.55
2018-08-21T02:57:05.372Z,27.54
2018-08-21T02:57:46.246Z,27.55
2018-08-21T02:58:27.047Z,27.6
2018-08-21T02:59:07.857Z,27.62
2018-08-21T02:59:48.600Z,27.55
2018-08-21T03:00:29.401Z,27.59
2018-08-21T03:01:10.217Z,27.55
2018-08-21T03:01:50.945Z,27.55
2018-08-21T03:02:31.681Z,27.57
2018-08-21T03:03:12.410Z,27.66
2018-08-21T03:03:53.225Z,27.55
2018-08-21T03:04:34.140Z,27.62
2018-08-21T03:05:14.997Z,27.59
2018-08-21T03:05:55.759Z,27.59
2018-08-21T03:06:36.466Z,27.57
2018-08-21T03:07:17.166Z,27.57
2018-08-21T03:07:57.960Z,27.59
2018-08-21T03:08:38.806Z,27.5
2018-08-21T03:09:19.561Z,27.51
2018-08-21T03:10:00.374Z,27.54
2018-08-21T03:10:41.200Z,27.62
2018-08-21T03:11:21.987Z,27.51
2018-08-21T03:12:02.826Z,27.59
2018-08-21T03:12:43.543Z,27.57
2018-08-21T03:13:24.281Z,27.54
2018-08-21T03:14:05.018Z,27.55
2018-08-21T03:14:45.813Z,27.62
2018-08-21T03:15:26.656Z,27.55
2018-08-21T03:16:07.517Z,27.54
2018-08-21T03:16:48.262Z,27.55
2018-08-21T03:17:29.071Z,27.66
2018-08-21T03:18:09.906Z,27.57
2018-08-21T03:18:50.691Z,27.55
2018-08-21T03:19:31.449Z,27.51
2018-08-21T03:20:12.164Z,27.6
2018-08-21T03:20:52.926Z,27.55
2018-08-21T03:21:33.770Z,27.6
2018-08-21T03:22:14.569Z,27.57
2018-08-21T03:22:55.460Z,27.6
2018-08-21T03:23:36.205Z,27.65
2018-08-21T03:24:16.907Z,27.57
2018-08-21T03:24:57.653Z,27.57
2018-08-21T03:25:38.429Z,27.54
2018-08-21T03:26:21.081Z,27.66
2018-08-21T03:27:01.837Z,27.51
2018-08-21T03:27:42.659Z,27.49
2018-08-21T03:28:23.479Z,27.54
2018-08-21T03:29:04.259Z,27.5
2018-08-21T03:29:45.081Z,27.6
2018-08-21T03:30:25.816Z,27.51
2018-08-21T03:31:06.625Z,27.51
2018-08-21T03:31:47.494Z,27.62
2018-08-21T03:32:28.213Z,27.51
2018-08-21T03:33:08.961Z,27.5
2018-08-21T03:33:49.698Z,27.54
2018-08-21T03:34:30.496Z,27.55
2018-08-21T03:35:11.308Z,27.54
2018-08-21T03:35:52.028Z,27.57
2018-08-21T03:36:32.839Z,27.5
2018-08-21T03:37:13.643Z,27.57
2018-08-21T03:37:54.456Z,27.6
2018-08-21T03:38:35.239Z,27.6
2018-08-21T03:39:17.798Z,27.6
2018-08-21T03:39:58.546Z,27.5
2018-08-21T03:40:39.341Z,27.57
2018-08-21T03:41:20.190Z,27.51
2018-08-21T03:42:01.054Z,27.55
2018-08-21T03:42:41.805Z,27.55
2018-08-21T03:43:22.534Z,27.49
2018-08-21T03:44:03.353Z,27.6
2018-08-21T03:44:44.171Z,27.51
2018-08-21T03:45:24.932Z,27.54
2018-08-21T03:46:05.686Z,27.66
2018-08-21T03:46:46.451Z,27.51
2018-08-21T03:47:27.317Z,27.47
2018-08-21T03:48:08.129Z,27.59
2018-08-21T03:48:48.931Z,27.59
2018-08-21T03:49:29.673Z,27.65
2018-08-21T03:50:10.377Z,27.57
2018-08-21T03:50:51.091Z,27.65
2018-08-21T03:51:31.882Z,27.54
2018-08-21T03:52:12.698Z,27.6
2018-08-21T03:52:53.439Z,27.54
2018-08-21T03:53:34.274Z,27.62
2018-08-21T03:54:15.070Z,27.57
2018-08-21T03:54:55.917Z,27.5
2018-08-21T03:55:36.686Z,27.51
2018-08-21T03:56:17.428Z,27.6
2018-08-21T03:56:58.152Z,27.47
2018-08-21T03:57:38.869Z,27.49
2018-08-21T03:58:19.742Z,27.57
2018-08-21T03:59:00.613Z,27.6
2018-08-21T03:59:41.414Z,27.55
2018-08-21T04:00:22.194Z,27.55
2018-08-21T04:01:02.957Z,27.51
2018-08-21T04:01:43.740Z,27.5
2018-08-21T04:02:24.540Z,27.55
2018-08-21T04:03:05.265Z,27.51
2018-08-21T04:03:45.980Z,27.51
2018-08-21T04:04:26.831Z,27.51
2018-08-21T04:05:07.697Z,27.59
2018-08-21T04:05:49.952Z,27.47
2018-08-21T04:06:30.749Z,27.5
2018-08-21T04:07:11.573Z,27.5
2018-08-21T04:07:52.393Z,27.54
2018-08-21T04:08:33.209Z,27.49
2018-08-21T04:09:13.957Z,27.46
2018-08-21T04:09:54.786Z,27.47
2018-08-21T04:10:35.541Z,27.47
2018-08-21T04:11:16.269Z,27.4
2018-08-21T04:11:56.996Z,27.44
2018-08-21T04:12:37.748Z,27.4
2018-08-21T04:13:18.606Z,27.43
2018-08-21T04:13:59.469Z,27.41
2018-08-21T04:14:40.289Z,27.41
2018-08-21T04:15:21.026Z,27.43
2018-08-21T04:16:01.789Z,27.41
2018-08-21T04:16:42.525Z,27.41
2018-08-21T04:17:23.321Z,27.4
2018-08-21T04:18:04.098Z,27.4
2018-08-21T04:18:44.848Z,27.4
2018-08-21T04:19:25.568Z,27.4
2018-08-21T04:20:08.288Z,27.4
2018-08-21T04:20:49.174Z,27.41
2018-08-21T04:21:30.007Z,27.41
2018-08-21T04:22:10.749Z,27.41
2018-08-21T04:22:51.490Z,27.41
2018-08-21T04:23:32.271Z,27.41
2018-08-21T04:24:13.092Z,27.4
2018-08-21T04:24:53.913Z,27.44
2018-08-21T04:25:34.761Z,27.43
2018-08-21T04:26:15.568Z,27.44
2018-08-21T04:26:56.322Z,27.47
2018-08-21T04:27:37.160Z,27.41
2018-08-21T04:28:18.023Z,27.44
2018-08-21T04:28:58.746Z,27.41
2018-08-21T04:29:39.493Z,27.37
2018-08-21T04:30:20.234Z,27.41
2018-08-21T04:31:01.127Z,27.41
2018-08-21T04:31:41.953Z,27.39
2018-08-21T04:32:22.729Z,27.41
2018-08-21T04:33:03.507Z,27.39
2018-08-21T04:33:44.260Z,27.37
2018-08-21T04:34:24.993Z,27.4
2018-08-21T04:35:05.831Z,27.41
2018-08-21T04:35:46.634Z,27.39
2018-08-21T04:36:27.348Z,27.4
2018-08-21T04:37:08.210Z,27.43
2018-08-21T04:37:48.977Z,27.4
2018-08-21T04:38:29.816Z,27.41
2018-08-21T04:39:10.614Z,27.43
2018-08-21T04:39:51.365Z,27.44
2018-08-21T04:40:32.201Z,27.44
2018-08-21T04:41:13.062Z,27.41
2018-08-21T04:41:53.810Z,27.46
2018-08-21T04:42:37.107Z,27.41
2018-08-21T04:43:17.865Z,27.43
2018-08-21T04:43:58.733Z,27.43
2018-08-21T04:44:39.517Z,27.37
2018-08-21T04:45:20.278Z,27.43
2018-08-21T04:46:01.115Z,27.4
2018-08-21T04:46:41.916Z,27.43
2018-08-21T04:47:22.773Z,27.46
2018-08-21T04:48:03.546Z,27.4
2018-08-21T04:48:44.307Z,27.41
2018-08-21T04:49:25.089Z,27.44
2018-08-21T04:50:05.838Z,27.46
2018-08-21T04:50:46.698Z,27.47
2018-08-21T04:51:27.568Z,27.41
2018-08-21T04:52:08.326Z,27.46
2018-08-21T04:52:49.105Z,27.43
2018-08-21T04:53:29.915Z,27.43
2018-08-21T04:54:10.788Z,27.39
2018-08-21T04:54:51.536Z,27.43
2018-08-21T04:55:32.285Z,27.46
2018-08-21T04:56:14.574Z,27.47
2018-08-21T04:56:55.406Z,27.5
2018-08-21T04:57:36.211Z,27.4
2018-08-21T04:58:17.021Z,27.49
2018-08-21T04:58:57.790Z,27.44
2018-08-21T04:59:38.605Z,27.37
2018-08-21T05:00:19.444Z,27.46
2018-08-21T05:01:00.231Z,27.4
2018-08-21T05:01:41.030Z,27.41
2018-08-21T05:02:21.879Z,27.46
2018-08-21T05:03:02.668Z,27.44
2018-08-21T05:03:43.415Z,27.39
2018-08-21T05:04:24.131Z,27.43
2018-08-21T05:05:04.917Z,27.46
2018-08-21T05:05:45.814Z,27.37
2018-08-21T05:06:26.625Z,27.43
2018-08-21T05:07:07.484Z,27.46
2018-08-21T05:07:48.264Z,27.39
2018-08-21T05:08:29.004Z,27.41
2018-08-21T05:09:09.749Z,27.43
2018-08-21T05:09:50.496Z,27.43
2018-08-21T05:10:31.290Z,27.39
2018-08-21T05:11:13.986Z,27.4
2018-08-21T05:11:54.741Z,27.51
2018-08-21T05:12:35.617Z,27.4
2018-08-21T05:13:16.342Z,27.41
2018-08-21T05:13:58.993Z,27.4
2018-08-21T05:14:39.745Z,27.4
2018-08-21T05:15:20.553Z,27.4
2018-08-21T05:16:01.434Z,27.4
2018-08-21T05:16:42.167Z,27.49
2018-08-21T05:17:25.571Z,27.39
2018-08-21T05:18:06.436Z,27.43
2018-08-21T05:18:47.150Z,27.44
2018-08-21T05:19:27.985Z,27.39
2018-08-21T05:20:08.743Z,27.46
2018-08-21T05:20:49.517Z,27.4
2018-08-21T05:21:30.407Z,27.41
2018-08-21T05:22:11.249Z,27.4
2018-08-21T05:22:52.027Z,27.44
2018-08-21T05:23:32.790Z,27.39
2018-08-21T05:24:13.596Z,27.4
2018-08-21T05:24:54.345Z,27.37
2018-08-21T05:25:35.177Z,27.44
2018-08-21T05:26:16.056Z,27.43
2018-08-21T05:26:56.920Z,27.4
2018-08-21T05:27:37.683Z,27.4
2018-08-21T05:28:18.463Z,27.39
2018-08-21T05:28:59.307Z,27.43
2018-08-21T05:29:40.090Z,27.43
2018-08-21T05:30:20.839Z,27.41
2018-08-21T05:31:01.613Z,27.4
2018-08-21T05:31:42.417Z,27.4
2018-08-21T05:32:23.232Z,27.41
2018-08-21T05:33:04.127Z,27.39
2018-08-21T05:33:44.913Z,27.41
2018-08-21T05:34:25.601Z,27.39
2018-08-21T05:35:06.360Z,27.4
2018-08-21T05:35:47.105Z,27.41
2018-08-21T05:36:27.928Z,27.43
2018-08-21T05:37:08.814Z,27.41
2018-08-21T05:37:49.548Z,27.4
2018-08-21T05:38:30.419Z,27.41
2018-08-21T05:39:11.241Z,27.4
2018-08-21T05:39:52.118Z,27.39
2018-08-21T05:40:32.910Z,27.41
2018-08-21T05:41:13.671Z,27.43
2018-08-21T05:41:54.452Z,27.44
2018-08-21T05:42:38.851Z,27.41
2018-08-21T05:43:19.704Z,27.4
2018-08-21T05:44:00.546Z,27.5
2018-08-21T05:44:41.334Z,27.43
2018-08-21T05:45:22.113Z,27.41
2018-08-21T05:46:04.759Z,27.43
2018-08-21T05:46:45.560Z,27.47
2018-08-21T05:47:26.304Z,27.5
2018-08-21T05:48:07.008Z,27.5
2018-08-21T05:48:47.766Z,27.5
2018-08-21T05:49:30.496Z,27.54
2018-08-21T05:50:11.261Z,27.49
2018-08-21T05:50:52.026Z,27.51
2018-08-21T05:51:32.812Z,27.55
2018-08-21T05:52:13.642Z,27.5
2018-08-21T05:52:54.449Z,27.55
2018-08-21T05:53:35.158Z,27.59
2018-08-21T05:54:15.903Z,27.51
2018-08-21T05:54:56.748Z,27.59
2018-08-21T05:55:37.685Z,27.44
2018-08-21T05:56:18.315Z,27.5
2018-08-21T05:56:59.052Z,27.54
2018-08-21T05:57:39.828Z,27.51
2018-08-21T05:58:20.664Z,27.55
2018-08-21T05:59:01.454Z,27.5
2018-08-21T05:59:42.311Z,27.57
2018-08-21T06:00:23.071Z,27.49
2018-08-21T06:01:03.830Z,27.46
2018-08-21T06:01:44.592Z,27.65
2018-08-21T06:02:25.392Z,27.54
2018-08-21T06:03:06.242Z,27.54
2018-08-21T06:03:46.986Z,27.57
2018-08-21T06:04:27.752Z,27.51
2018-08-21T06:05:08.589Z,27.51
2018-08-21T06:05:49.420Z,27.55
2018-08-21T06:06:30.188Z,27.51
2018-08-21T06:07:10.978Z,27.47
2018-08-21T06:07:51.763Z,27.51
2018-08-21T06:08:32.469Z,27.65
2018-08-21T06:09:13.285Z,27.51
2018-08-21T06:09:54.099Z,27.54
2018-08-21T06:10:34.923Z,27.55
2018-08-21T06:11:15.711Z,27.57
2018-08-21T06:11:56.697Z,27.65
2018-08-21T06:12:37.526Z,27.57
2018-08-21T06:13:18.272Z,27.54
2018-08-21T06:13:59.004Z,27.6
2018-08-21T06:14:39.776Z,27.59
2018-08-21T06:15:20.618Z,27.65
2018-08-21T06:16:01.394Z,27.65
2018-08-21T06:16:42.235Z,27.65
2018-08-21T06:17:23.051Z,27.65
2018-08-21T06:18:03.777Z,27.63
2018-08-21T06:18:44.556Z,27.6
2018-08-21T06:19:25.299Z,27.7
2018-08-21T06:20:06.127Z,27.63
2018-08-21T06:20:46.877Z,27.77
2018-08-21T06:21:27.631Z,27.67
2018-08-21T06:22:08.436Z,27.79
2018-08-21T06:22:49.384Z,27.84
2018-08-21T06:23:30.202Z,27.85
2018-08-21T06:24:10.973Z,27.93
2018-08-21T06:24:51.839Z,27.99
2018-08-21T06:25:32.593Z,28.09
2018-08-21T06:26:13.281Z,28.39
2018-08-21T06:26:54.032Z,28.81
2018-08-21T06:27:34.805Z,29.37
2018-08-21T06:28:15.571Z,29.95
2018-08-21T06:28:56.381Z,30.35
2018-08-21T06:29:37.184Z,30.79
2018-08-21T06:30:17.909Z,31.19
2018-08-21T06:30:58.744Z,31.58
2018-08-21T06:31:39.533Z,32.04
2018-08-21T06:32:20.338Z,32.22
2018-08-21T06:33:01.077Z,32.67
2018-08-21T06:33:41.883Z,33.04
2018-08-21T06:34:22.621Z,33.41
2018-08-21T06:35:03.485Z,33.63
2018-08-21T06:35:44.311Z,33.87
2018-08-21T06:36:25.159Z,34.19
2018-08-21T06:37:05.973Z,34.46
2018-08-21T06:37:46.681Z,34.69
2018-08-21T06:38:27.512Z,34.8
2018-08-21T06:39:08.315Z,35.07
2018-08-21T06:39:49.092Z,35.33
2018-08-21T06:40:29.845Z,35.45
2018-08-21T06:41:10.557Z,35.74
2018-08-21T06:41:51.412Z,35.75
2018-08-21T06:42:32.270Z,35.97
2018-08-21T06:43:13.024Z,36.22
2018-08-21T06:43:53.745Z,36.17
2018-08-21T06:44:34.471Z,36.29
2018-08-21T06:45:15.224Z,36.44
2018-08-21T06:45:56.044Z,36.62
2018-08-21T06:46:36.868Z,36.64
2018-08-21T06:47:17.609Z,36.73
2018-08-21T06:47:58.443Z,36.81
2018-08-21T06:48:39.276Z,37
2018-08-21T06:49:20.112Z,37.18
2018-08-21T06:50:00.918Z,37.25
2018-08-21T06:50:43.648Z,37.4
2018-08-21T06:51:24.401Z,37.47
2018-08-21T06:52:05.117Z,37.56
2018-08-21T06:52:45.963Z,37.66
2018-08-21T06:53:26.756Z,37.63
2018-08-21T06:54:09.373Z,37.72
2018-08-21T06:54:50.137Z,37.79
2018-08-21T06:55:30.920Z,37.86
2018-08-21T06:56:11.750Z,37.96
2018-08-21T06:56:52.543Z,37.93
2018-08-21T06:57:33.312Z,38
2018-08-21T06:58:14.088Z,37.96
2018-08-21T06:58:54.865Z,37.63
2018-08-21T06:59:35.629Z,37.56
2018-08-21T07:00:16.440Z,37.46
2018-08-21T07:00:57.112Z,37.55
2018-08-21T07:01:37.948Z,37.5
2018-08-21T07:02:18.767Z,37.67
2018-08-21T07:02:59.555Z,37.75
2018-08-21T07:03:40.289Z,37.94
2018-08-21T07:04:21.146Z,37.86
2018-08-21T07:05:01.937Z,38
2018-08-21T07:05:42.677Z,37.98
2018-08-21T07:06:23.404Z,38.03
2018-08-21T07:07:04.129Z,38.04
2018-08-21T07:07:44.969Z,38.01
2018-08-21T07:08:25.748Z,38.15
2018-08-21T07:09:06.645Z,38.12
2018-08-21T07:09:47.420Z,37.94
2018-08-21T07:10:28.164Z,37.78
2018-08-21T07:11:09.001Z,37.47
2018-08-21T07:11:49.743Z,37.15
2018-08-21T07:12:30.542Z,36.94
2018-08-21T07:13:11.330Z,36.75
2018-08-21T07:13:52.072Z,36.49
2018-08-21T07:14:32.963Z,36.37
2018-08-21T07:15:13.768Z,36.03
2018-08-21T07:15:54.551Z,35.89
2018-08-21T07:16:35.276Z,35.81
2018-08-21T07:17:16.031Z,35.58
2018-08-21T07:17:56.891Z,35.5
2018-08-21T07:18:37.693Z,35.25
2018-08-21T07:19:18.468Z,35.28
2018-08-21T07:19:59.190Z,35.29
2018-08-21T07:20:39.961Z,35.29
2018-08-21T07:21:20.805Z,35.23
2018-08-21T07:22:01.594Z,35.33
2018-08-21T07:22:42.337Z,35.22
2018-08-21T07:23:23.189Z,35.07
2018-08-21T07:24:04.044Z,34.99
2018-08-21T07:24:44.876Z,34.85
2018-08-21T07:25:25.585Z,34.65
2018-08-21T07:26:06.318Z,34.54
2018-08-21T07:26:47.088Z,34.31
2018-08-21T07:27:27.904Z,34.32
2018-08-21T07:28:08.698Z,34.34
2018-08-21T07:28:49.563Z,34.46
2018-08-21T07:29:30.321Z,34.65
2018-08-21T07:30:11.073Z,35.06
2018-08-21T07:30:52.204Z,35
2018-08-21T07:31:34.709Z,34.44
2018-08-21T07:32:15.421Z,34.15
2018-08-21T07:32:56.177Z,34.02
2018-08-21T07:33:36.911Z,33.82
2018-08-21T07:34:17.763Z,33.72
2018-08-21T07:34:58.500Z,33.51
2018-08-21T07:35:39.237Z,33.21
2018-08-21T07:36:20.066Z,32.93
2018-08-21T07:37:00.881Z,32.89
2018-08-21T07:37:41.764Z,32.7
2018-08-21T07:38:22.521Z,32.69
2018-08-21T07:39:03.352Z,32.57
2018-08-21T07:39:44.197Z,32.45
2018-08-21T07:40:24.984Z,32.44
2018-08-21T07:41:05.710Z,32.5
2018-08-21T07:41:46.477Z,32.3
2018-08-21T07:42:27.258Z,32.28
2018-08-21T07:43:08.131Z,32.25
2018-08-21T07:43:48.980Z,32.19
2018-08-21T07:44:31.723Z,32.04
2018-08-21T07:45:12.520Z,31.99
2018-08-21T07:45:53.348Z,31.95
2018-08-21T07:46:34.140Z,31.69
2018-08-21T07:47:15.003Z,31.56
2018-08-21T07:47:55.886Z,31.75
2018-08-21T07:48:38.366Z,31.56
2018-08-21T07:49:19.175Z,31.66
2018-08-21T07:49:59.985Z,31.61
2018-08-21T07:50:40.839Z,31.51
2018-08-21T07:51:21.603Z,31.5
2018-08-21T07:52:02.350Z,31.41
2018-08-21T07:52:43.129Z,31.39
2018-08-21T07:53:23.927Z,31.36
2018-08-21T07:54:04.763Z,31.31
2018-08-21T07:54:45.583Z,31.28
2018-08-21T07:55:29.299Z,31.25
2018-08-21T07:56:10.051Z,31.21
2018-08-21T07:56:50.820Z,31.2
2018-08-21T07:57:31.644Z,31.12
2018-08-21T07:58:12.422Z,31.09
2018-08-21T07:58:53.086Z,30.91
2018-08-21T07:59:33.844Z,30.72
2018-08-21T08:00:14.693Z,30.79
2018-08-21T08:00:55.514Z,30.88
2018-08-21T08:01:38.072Z,30.77
2018-08-21T08:02:18.839Z,30.79
2018-08-21T08:02:59.599Z,30.72
2018-08-21T08:03:40.374Z,30.86
2018-08-21T08:04:21.136Z,30.65
2018-08-21T08:05:01.961Z,30.82
2018-08-21T08:05:44.627Z,30.75
2018-08-21T08:06:25.384Z,30.65
2018-08-21T08:07:06.244Z,30.65
2018-08-21T08:07:47.075Z,30.65
2018-08-21T08:08:27.935Z,30.67
2018-08-21T08:09:08.643Z,30.65
2018-08-21T08:09:49.418Z,30.62
2018-08-21T08:10:30.282Z,30.53
2018-08-21T08:11:10.992Z,30.55
2018-08-21T08:11:51.727Z,30.51
2018-08-21T08:12:32.445Z,30.47
2018-08-21T08:13:13.277Z,30.42
2018-08-21T08:13:54.092Z,30.49
2018-08-21T08:14:34.757Z,30.35
2018-08-21T08:15:15.539Z,30.53
2018-08-21T08:15:56.413Z,30.38
2018-08-21T08:16:37.244Z,30.39
2018-08-21T08:17:18.024Z,30.46
2018-08-21T08:17:58.747Z,30.32
2018-08-21T08:18:42.413Z,30.43
2018-08-21T08:19:23.173Z,30.24
2018-08-21T08:20:04.028Z,30.38
2018-08-21T08:20:46.619Z,30.31
2018-08-21T08:21:27.460Z,30.29
2018-08-21T08:22:08.203Z,30.29
2018-08-21T08:22:48.985Z,30.29
2018-08-21T08:23:29.932Z,30.19
2018-08-21T08:24:10.680Z,30.24
2018-08-21T08:24:51.421Z,30.19
2018-08-21T08:25:32.154Z,30.2
2018-08-21T08:26:12.938Z,30.19
2018-08-21T08:26:53.812Z,30.17
2018-08-21T08:27:34.630Z,30.02
2018-08-21T08:28:15.478Z,30.01
2018-08-21T08:28:56.231Z,30.02
2018-08-21T08:29:36.962Z,30.02
2018-08-21T08:30:17.680Z,30
2018-08-21T08:30:58.513Z,30.01
2018-08-21T08:31:41.255Z,30
2018-08-21T08:32:23.784Z,30.02
2018-08-21T08:33:04.567Z,29.98
2018-08-21T08:33:45.383Z,29.9
2018-08-21T08:34:26.229Z,30
2018-08-21T08:35:07.084Z,29.98
2018-08-21T08:35:47.941Z,29.98
2018-08-21T08:36:30.411Z,29.95
2018-08-21T08:37:11.184Z,29.94
2018-08-21T08:37:52.041Z,29.95
2018-08-21T08:38:32.859Z,29.9
2018-08-21T08:39:13.711Z,29.94
2018-08-21T08:39:54.440Z,29.87
2018-08-21T08:40:35.236Z,29.86
2018-08-21T08:41:16.043Z,29.85
2018-08-21T08:41:56.807Z,29.87
2018-08-21T08:42:37.502Z,29.89
2018-08-21T08:43:18.266Z,29.83
2018-08-21T08:44:00.763Z,29.83
2018-08-21T08:44:41.561Z,29.8
2018-08-21T08:45:22.299Z,29.73
2018-08-21T08:46:03.059Z,29.71
2018-08-21T08:46:44.079Z,29.8
2018-08-21T08:47:24.947Z,29.8
2018-08-21T08:48:05.728Z,29.71
2018-08-21T08:48:46.469Z,29.68
2018-08-21T08:49:27.327Z,29.74